createdAt,value
2019-05-26T00:00:10.090Z,6.70
2019-05-26T00:02:41.847Z,6.77
2019-05-26T00:05:13.349Z,6.60
2019-05-26T00:07:44.889Z,6.77
2019-05-26T00:10:16.474Z,6.37
2019-05-26T00:12:48.064Z,6.93
2019-05-26T00:15:19.985Z,6.97
2019-05-26T00:17:51.966Z,6.20
2019-05-26T00:20:23.491Z,6.13
2019-05-26T00:22:54.981Z,6.20
2019-05-26T00:25:26.645Z,6.50
2019-05-26T00:27:58.134Z,6.63
2019-05-26T00:30:29.643Z,6.40
2019-05-26T00:33:01.249Z,6.63
2019-05-26T00:35:32.847Z,6.20
2019-05-26T00:38:04.652Z,6.63
2019-05-26T00:40:36.145Z,6.10
2019-05-26T00:43:07.681Z,5.87
2019-05-26T00:45:39.544Z,6.47
2019-05-26T00:48:11.080Z,6.60
2019-05-26T00:50:42.623Z,6.50
2019-05-26T00:53:14.414Z,6.73
2019-05-26T00:55:45.911Z,6.43
2019-05-26T00:58:17.423Z,6.63
2019-05-26T01:00:49.006Z,6.73
2019-05-26T01:03:20.555Z,7.20
2019-05-26T01:05:52.043Z,6.90
2019-05-26T01:08:23.588Z,6.23
2019-05-26T01:10:55.076Z,6.70
2019-05-26T01:13:26.554Z,6.93
2019-05-26T01:15:58.037Z,6.77
2019-05-26T01:18:29.768Z,7.03
2019-05-26T01:21:01.700Z,6.47
2019-05-26T01:23:33.173Z,6.73
2019-05-26T01:26:05.047Z,7.03
2019-05-26T01:28:36.608Z,6.90
2019-05-26T01:31:08.159Z,6.83
2019-05-26T01:33:39.823Z,6.33
2019-05-26T01:36:11.344Z,6.67
2019-05-26T01:38:43.329Z,6.60
2019-05-26T01:41:14.848Z,8.40
2019-05-26T01:43:46.440Z,8.30
2019-05-26T01:46:17.947Z,8.80
2019-05-26T01:48:49.746Z,8.20
2019-05-26T01:51:21.248Z,7.40
2019-05-26T01:53:54.384Z,8.47
2019-05-26T01:56:26.271Z,8.70
2019-05-26T01:58:58.021Z,8.63
2019-05-26T02:01:29.507Z,8.47
2019-05-26T02:04:01.008Z,9.53
2019-05-26T02:06:32.609Z,9.47
2019-05-26T02:09:06.266Z,9.80
2019-05-26T02:11:37.906Z,9.17
2019-05-26T02:14:09.448Z,9.10
2019-05-26T02:16:41.290Z,9.10
2019-05-26T02:19:14.720Z,9.20
2019-05-26T02:21:46.476Z,10.03
2019-05-26T02:24:17.966Z,10.60
2019-05-26T02:26:49.494Z,10.23
2019-05-26T02:29:21.243Z,10.07
2019-05-26T02:31:52.771Z,10.23
2019-05-26T02:34:24.257Z,10.40
2019-05-26T02:36:55.806Z,9.97
2019-05-26T02:39:27.544Z,9.83
2019-05-26T02:41:59.383Z,9.83
2019-05-26T02:44:31.434Z,9.30
2019-05-26T02:47:03.520Z,9.10
2019-05-26T02:49:35.008Z,9.27
2019-05-26T02:52:06.492Z,9.67
2019-05-26T02:54:37.928Z,9.70
2019-05-26T02:57:09.450Z,9.73
2019-05-26T02:59:40.849Z,9.13
2019-05-26T03:02:12.669Z,9.83
2019-05-26T03:04:44.578Z,9.53
2019-05-26T03:07:18.084Z,8.83
2019-05-26T03:09:51.563Z,8.77
2019-05-26T03:12:27.362Z,8.40
2019-05-26T03:15:01.234Z,8.63
2019-05-26T03:17:35.538Z,8.80
2019-05-26T03:20:07.678Z,9.10
2019-05-26T03:22:42.372Z,9.40
2019-05-26T03:25:14.030Z,9.17
2019-05-26T03:27:45.548Z,9.53
2019-05-26T03:30:17.126Z,9.40
2019-05-26T03:32:48.975Z,9.13
2019-05-26T03:35:20.487Z,9.70
2019-05-26T03:37:51.960Z,8.70
2019-05-26T03:40:23.413Z,9.57
2019-05-26T03:42:55.342Z,8.37
2019-05-26T03:45:46.700Z,8.87
2019-05-26T03:48:18.101Z,9.77
2019-05-26T03:50:49.610Z,9.47
2019-05-26T03:53:21.008Z,9.90
2019-05-26T03:55:52.339Z,8.37
2019-05-26T03:58:23.778Z,9.43
2019-05-26T04:00:55.883Z,9.43
2019-05-26T04:03:27.637Z,9.20
2019-05-26T04:05:59.117Z,9.13
2019-05-26T04:08:30.617Z,9.33
2019-05-26T04:11:02.028Z,9.77
2019-05-26T04:13:33.600Z,8.83
2019-05-26T04:16:05.512Z,8.00
2019-05-26T04:18:36.988Z,8.23
2019-05-26T04:21:08.552Z,8.57
2019-05-26T04:23:40.081Z,8.03
2019-05-26T04:26:11.549Z,7.47
2019-05-26T04:28:43.479Z,7.73
2019-05-26T04:31:15.065Z,7.53
2019-05-26T04:33:46.587Z,8.40
2019-05-26T04:36:18.342Z,8.20
2019-05-26T04:38:50.198Z,8.50
2019-05-26T04:41:22.083Z,8.53
2019-05-26T04:43:53.498Z,8.87
2019-05-26T04:46:24.945Z,9.20
2019-05-26T04:48:56.464Z,10.47
2019-05-26T04:51:27.988Z,9.80
2019-05-26T04:53:59.405Z,9.27
2019-05-26T04:56:30.897Z,10.13
2019-05-26T04:59:02.326Z,10.83
2019-05-26T05:01:33.848Z,10.73
2019-05-26T05:04:05.365Z,11.67
2019-05-26T05:06:37.035Z,11.30
2019-05-26T05:09:09.190Z,10.90
2019-05-26T05:11:40.635Z,10.73
2019-05-26T05:14:11.981Z,11.03
2019-05-26T05:16:43.389Z,11.13
2019-05-26T05:19:14.874Z,12.13
2019-05-26T05:21:46.525Z,12.23
2019-05-26T05:24:18.342Z,12.40
2019-05-26T05:26:50.384Z,11.17
2019-05-26T05:29:21.919Z,11.33
2019-05-26T05:31:53.361Z,12.13
2019-05-26T05:34:24.901Z,12.13
2019-05-26T05:36:57.373Z,12.53
2019-05-26T05:39:28.860Z,13.33
2019-05-26T05:42:00.641Z,14.10
2019-05-26T05:44:32.143Z,14.10
2019-05-26T05:47:04.799Z,13.70
2019-05-26T05:49:36.379Z,14.47
2019-05-26T05:52:07.862Z,14.40
2019-05-26T05:54:39.254Z,14.80
2019-05-26T05:57:11.044Z,16.30
2019-05-26T05:59:42.473Z,15.80
2019-05-26T06:02:15.091Z,16.43
2019-05-26T06:04:46.669Z,16.13
2019-05-26T06:07:18.254Z,15.40
2019-05-26T06:09:50.283Z,16.20
2019-05-26T06:12:21.806Z,17.07
2019-05-26T06:14:53.279Z,16.63
2019-05-26T06:17:24.870Z,14.87
2019-05-26T06:19:56.438Z,13.70
2019-05-26T06:22:27.911Z,13.70
2019-05-26T06:24:59.323Z,13.80
2019-05-26T06:27:30.771Z,13.33
2019-05-26T06:30:02.229Z,12.73
2019-05-26T06:32:34.257Z,13.33
2019-05-26T06:35:07.418Z,12.93
2019-05-26T06:37:38.959Z,13.27
2019-05-26T06:40:11.376Z,13.83
2019-05-26T06:42:42.853Z,14.33
2019-05-26T06:45:16.045Z,15.13
2019-05-26T06:47:48.775Z,15.40
2019-05-26T06:50:20.342Z,15.63
2019-05-26T06:52:51.863Z,16.20
2019-05-26T06:55:24.734Z,14.73
2019-05-26T06:57:56.211Z,14.67
2019-05-26T07:00:28.166Z,14.67
2019-05-26T07:02:59.689Z,14.43
2019-05-26T07:05:31.164Z,12.73
2019-05-26T07:08:02.643Z,13.47
2019-05-26T07:10:34.365Z,13.90
2019-05-26T07:13:05.942Z,14.30
2019-05-26T07:15:37.450Z,12.50
2019-05-26T07:18:09.200Z,13.13
2019-05-26T07:20:40.619Z,13.37
2019-05-26T07:23:13.181Z,13.00
2019-05-26T07:25:44.735Z,12.37
2019-05-26T07:28:16.613Z,13.20
2019-05-26T07:30:48.408Z,12.60
2019-05-26T07:33:19.897Z,11.50
2019-05-26T07:35:52.452Z,11.73
2019-05-26T07:38:23.856Z,11.30
2019-05-26T07:40:56.113Z,12.87
2019-05-26T07:43:28.345Z,12.50
2019-05-26T07:46:00.357Z,12.07
2019-05-26T07:48:35.600Z,11.90
2019-05-26T07:51:05.010Z,9.90
2019-05-26T07:53:36.508Z,9.43
2019-05-26T07:56:08.091Z,10.90
2019-05-26T07:58:39.445Z,10.23
2019-05-26T08:01:11.254Z,10.78
2019-05-26T08:03:42.563Z,8.87
2019-05-26T08:06:14.026Z,9.00
2019-05-26T08:08:45.530Z,7.72
2019-05-26T08:11:17.059Z,7.70
2019-05-26T08:13:48.950Z,7.10
2019-05-26T08:16:21.081Z,8.05
2019-05-26T08:18:52.892Z,8.13
2019-05-26T08:21:24.289Z,8.03
2019-05-26T08:23:56.142Z,10.68
2019-05-26T08:26:27.985Z,8.93
2019-05-26T08:28:59.438Z,9.15
2019-05-26T08:31:30.842Z,9.53
2019-05-26T08:34:02.336Z,9.48
2019-05-26T08:36:34.395Z,9.53
2019-05-26T08:39:08.832Z,8.98
2019-05-26T08:41:40.252Z,7.62
2019-05-26T08:44:11.710Z,6.53
2019-05-26T08:46:43.203Z,6.70
2019-05-26T08:49:16.506Z,6.92
2019-05-26T08:51:47.997Z,7.33
2019-05-26T08:54:19.836Z,6.47
2019-05-26T08:56:51.323Z,6.42
2019-05-26T08:59:23.124Z,7.37
2019-05-26T09:01:55.018Z,7.08
2019-05-26T09:04:26.555Z,6.50
2019-05-26T09:06:58.358Z,6.87
2019-05-26T09:09:29.735Z,6.75
2019-05-26T09:12:01.128Z,6.97
2019-05-26T09:14:32.491Z,7.45
2019-05-26T09:17:04.367Z,6.60
2019-05-26T09:19:35.760Z,6.90
2019-05-26T09:22:07.421Z,5.60
2019-05-26T09:24:39.173Z,5.90
2019-05-26T09:27:10.664Z,5.25
2019-05-26T09:29:42.195Z,5.15
2019-05-26T09:32:13.712Z,4.55
2019-05-26T09:34:45.188Z,4.67
2019-05-26T09:37:17.082Z,5.28
2019-05-26T09:39:48.779Z,5.62
2019-05-26T09:42:22.513Z,4.60
2019-05-26T09:44:54.383Z,3.62
2019-05-26T09:47:26.206Z,2.70
2019-05-26T09:49:57.687Z,3.25
2019-05-26T09:52:29.183Z,2.60
2019-05-26T09:55:00.672Z,2.98
2019-05-26T09:57:32.130Z,2.87
2019-05-26T10:00:03.635Z,3.60
2019-05-26T10:02:35.711Z,3.10
2019-05-26T10:05:07.687Z,3.72
2019-05-26T10:07:39.078Z,4.10
2019-05-26T10:10:11.409Z,3.50
2019-05-26T10:12:43.188Z,2.77
2019-05-26T10:15:15.352Z,3.17
2019-05-26T10:17:46.773Z,2.85
2019-05-26T10:20:18.482Z,2.72
2019-05-26T10:22:50.008Z,2.50
2019-05-26T10:25:21.547Z,2.70
2019-05-26T10:27:53.011Z,2.80
2019-05-26T10:30:24.666Z,2.52
2019-05-26T10:32:56.579Z,2.30
2019-05-26T10:35:28.301Z,2.33
2019-05-26T10:37:59.768Z,2.40
2019-05-26T10:40:31.266Z,2.75
2019-05-26T10:43:02.668Z,2.25
2019-05-26T10:45:34.558Z,2.08
2019-05-26T10:48:06.099Z,2.10
2019-05-26T10:50:37.578Z,1.87
2019-05-26T10:53:09.273Z,1.85
2019-05-26T10:55:41.021Z,1.70
2019-05-26T10:58:12.592Z,1.70
2019-05-26T11:00:44.556Z,4.62
2019-05-26T11:03:16.067Z,2.30
2019-05-26T11:05:47.709Z,1.98
2019-05-26T11:08:19.405Z,2.20
2019-05-26T11:10:50.991Z,2.95
2019-05-26T11:13:22.533Z,1.90
2019-05-26T11:15:53.942Z,2.52
2019-05-26T11:18:26.503Z,2.20
2019-05-26T11:20:58.091Z,2.20
2019-05-26T11:23:29.621Z,1.82
2019-05-26T11:26:01.014Z,2.10
2019-05-26T11:28:32.509Z,2.30
2019-05-26T11:31:04.004Z,2.30
2019-05-26T11:33:35.489Z,2.10
2019-05-26T11:36:07.227Z,1.60
2019-05-26T11:38:39.775Z,1.70
2019-05-26T11:41:11.256Z,1.60
2019-05-26T11:43:42.800Z,1.60
2019-05-26T11:46:16.675Z,1.60
2019-05-26T11:48:47.723Z,1.40
2019-05-26T11:51:19.222Z,1.60
2019-05-26T11:53:50.840Z,1.60
2019-05-26T11:56:22.386Z,1.50
2019-05-26T11:58:54.037Z,1.52
2019-05-26T12:01:25.431Z,1.50
2019-05-26T12:03:57.052Z,1.95
2019-05-26T12:06:28.446Z,2.02
2019-05-26T12:09:00.051Z,1.60
2019-05-26T12:11:31.804Z,1.55
2019-05-26T12:14:03.291Z,1.72
2019-05-26T12:16:35.086Z,2.08
2019-05-26T12:19:06.760Z,2.45
2019-05-26T12:21:38.447Z,2.60
2019-05-26T12:24:09.987Z,2.20
2019-05-26T12:26:41.482Z,1.80
2019-05-26T12:29:12.969Z,2.12
2019-05-26T12:31:44.370Z,2.20
2019-05-26T12:34:15.853Z,1.77
2019-05-26T12:36:47.521Z,2.62
2019-05-26T12:39:19.297Z,1.80
2019-05-26T12:41:51.384Z,2.00
2019-05-26T12:44:22.811Z,2.00
2019-05-26T12:46:55.369Z,2.05
2019-05-26T12:49:28.133Z,1.95
2019-05-26T12:51:59.581Z,2.30
2019-05-26T12:54:31.476Z,1.70
2019-05-26T12:57:02.949Z,2.00
2019-05-26T12:59:34.830Z,1.82
2019-05-26T13:02:06.743Z,1.80
2019-05-26T13:04:38.136Z,1.77
2019-05-26T13:07:09.601Z,2.08
2019-05-26T13:09:40.997Z,1.87
2019-05-26T13:12:13.624Z,1.40
2019-05-26T13:14:45.116Z,1.50
2019-05-26T13:17:16.594Z,1.62
2019-05-26T13:19:48.076Z,1.50
2019-05-26T13:22:20.866Z,1.80
2019-05-26T13:24:52.367Z,1.52
2019-05-26T13:27:23.908Z,1.25
2019-05-26T13:29:55.432Z,1.47
2019-05-26T13:32:26.905Z,1.32
2019-05-26T13:34:58.424Z,1.50
2019-05-26T13:37:30.201Z,1.62
2019-05-26T13:40:01.713Z,1.35
2019-05-26T13:42:33.149Z,1.37
2019-05-26T13:45:20.784Z,1.40
2019-05-26T13:47:38.511Z,1.67
2019-05-26T13:50:11.389Z,1.55
2019-05-26T13:52:42.854Z,1.50
2019-05-26T13:55:16.108Z,1.62
2019-05-26T13:57:49.580Z,1.80
2019-05-26T14:00:22.786Z,1.80
2019-05-26T14:02:54.524Z,1.90
2019-05-26T14:05:26.036Z,1.60
2019-05-26T14:07:57.521Z,1.47
2019-05-26T14:10:35.001Z,1.80
2019-05-26T14:13:07.910Z,1.67
2019-05-26T14:15:39.709Z,1.60
2019-05-26T14:18:11.395Z,1.40
2019-05-26T14:20:43.401Z,1.67
2019-05-26T14:23:14.798Z,1.62
2019-05-26T14:25:46.516Z,1.60
2019-05-26T14:28:18.096Z,1.42
2019-05-26T14:30:49.783Z,1.60
2019-05-26T14:33:21.253Z,1.50
2019-05-26T14:35:52.685Z,1.62
2019-05-26T14:38:24.207Z,1.30
2019-05-26T14:40:55.621Z,1.42
2019-05-26T14:43:27.241Z,1.70
2019-05-26T14:45:59.025Z,1.40
2019-05-26T14:48:30.608Z,1.47
2019-05-26T14:51:02.577Z,1.30
2019-05-26T14:53:34.035Z,1.57
2019-05-26T14:56:05.536Z,1.40
2019-05-26T14:58:36.930Z,1.45
2019-05-26T15:01:08.399Z,1.50
2019-05-26T15:03:39.865Z,1.70
2019-05-26T15:06:11.196Z,1.40
2019-05-26T15:08:42.674Z,1.60
2019-05-26T15:11:14.802Z,1.50
2019-05-26T15:13:46.182Z,1.50
2019-05-26T15:16:17.659Z,1.50
2019-05-26T15:18:49.042Z,1.40
2019-05-26T15:21:20.538Z,2.05
2019-05-26T15:23:52.677Z,1.55
2019-05-26T15:26:24.076Z,1.57
2019-05-26T15:28:55.509Z,1.50
2019-05-26T15:31:27.062Z,1.70
2019-05-26T15:33:58.545Z,1.57
2019-05-26T15:36:30.432Z,1.60
2019-05-26T15:39:02.306Z,1.70
2019-05-26T15:41:35.141Z,1.50
2019-05-26T15:44:06.749Z,1.75
2019-05-26T15:46:38.540Z,1.47
2019-05-26T15:49:10.061Z,1.70
2019-05-26T15:51:41.477Z,1.50
2019-05-26T15:54:13.052Z,1.60
2019-05-26T15:56:44.421Z,1.60
2019-05-26T15:59:15.836Z,1.77
2019-05-26T16:01:49.150Z,2.05
2019-05-26T16:04:20.642Z,1.75
2019-05-26T16:06:52.225Z,1.60
2019-05-26T16:09:25.039Z,1.60
2019-05-26T16:11:56.662Z,1.40
2019-05-26T16:14:28.357Z,1.70
2019-05-26T16:16:59.858Z,1.40
2019-05-26T16:19:31.243Z,1.42
2019-05-26T16:22:02.776Z,2.10
2019-05-26T16:24:34.192Z,1.70
2019-05-26T16:27:18.599Z,1.60
2019-05-26T16:29:38.760Z,1.57
2019-05-26T16:32:10.303Z,1.92
2019-05-26T16:34:42.012Z,1.82
2019-05-26T16:37:13.599Z,1.90
2019-05-26T16:39:44.930Z,1.70
2019-05-26T16:42:16.635Z,1.82
2019-05-26T16:44:48.490Z,1.80
2019-05-26T16:47:20.318Z,2.05
2019-05-26T16:49:51.651Z,1.72
2019-05-26T16:52:23.163Z,1.67
2019-05-26T16:54:54.723Z,1.70
2019-05-26T16:57:26.194Z,1.72
2019-05-26T16:59:57.693Z,1.87
2019-05-26T17:02:29.136Z,1.70
2019-05-26T17:05:01.769Z,2.00
2019-05-26T17:07:34.208Z,1.57
2019-05-26T17:10:06.903Z,1.70
2019-05-26T17:12:38.482Z,1.70
2019-05-26T17:15:10.032Z,2.17
2019-05-26T17:17:41.507Z,1.52
2019-05-26T17:20:13.284Z,1.80
2019-05-26T17:22:44.816Z,1.85
2019-05-26T17:25:18.262Z,2.00
2019-05-26T17:27:49.778Z,2.08
2019-05-26T17:30:22.342Z,1.95
2019-05-26T17:32:54.019Z,2.00
2019-05-26T17:37:57.926Z,1.80
2019-05-26T17:40:29.652Z,1.98
2019-05-26T17:43:01.470Z,1.95
2019-05-26T17:45:32.901Z,2.50
2019-05-26T17:48:04.479Z,2.37
2019-05-26T17:50:36.010Z,2.10
2019-05-26T17:53:07.486Z,2.22
2019-05-26T17:55:39.029Z,2.37
2019-05-26T17:58:10.560Z,2.37
2019-05-26T18:00:42.361Z,2.52
2019-05-26T18:03:13.773Z,2.40
2019-05-26T18:05:45.437Z,2.12
2019-05-26T18:08:17.385Z,2.30
2019-05-26T18:10:48.932Z,2.40
2019-05-26T18:13:21.020Z,2.65
2019-05-26T18:15:52.596Z,2.70
2019-05-26T18:18:24.579Z,2.30
2019-05-26T18:20:56.056Z,2.50
2019-05-26T18:23:27.457Z,2.30
2019-05-26T18:25:58.989Z,2.35
2019-05-26T18:28:30.464Z,2.60
2019-05-26T18:31:02.007Z,2.52
2019-05-26T18:33:33.524Z,2.70
2019-05-26T18:36:04.991Z,2.90
2019-05-26T18:38:36.408Z,3.00
2019-05-26T18:41:08.921Z,2.70
2019-05-26T18:43:40.335Z,3.70
2019-05-26T18:46:12.179Z,3.47
2019-05-26T18:48:43.653Z,3.20
2019-05-26T18:51:15.140Z,3.60
2019-05-26T18:53:48.058Z,3.47
2019-05-26T18:56:19.516Z,3.27
2019-05-26T18:58:50.946Z,3.70
2019-05-26T19:01:22.414Z,3.23
2019-05-26T19:03:53.756Z,3.27
2019-05-26T19:06:25.266Z,3.60
2019-05-26T19:08:57.089Z,3.43
2019-05-26T19:11:28.958Z,3.30
2019-05-26T19:14:00.604Z,3.20
2019-05-26T19:16:32.341Z,3.73
2019-05-26T19:19:05.184Z,3.63
2019-05-26T19:21:36.747Z,3.70
2019-05-26T19:24:08.306Z,3.63
2019-05-26T19:26:39.783Z,3.90
2019-05-26T19:29:11.287Z,3.73
2019-05-26T19:31:43.831Z,4.00
2019-05-26T19:34:15.302Z,3.90
2019-05-26T19:36:46.684Z,3.77
2019-05-26T19:39:18.241Z,3.67
2019-05-26T19:41:49.671Z,3.67
2019-05-26T19:44:21.145Z,4.20
2019-05-26T19:46:53.841Z,4.23
2019-05-26T19:49:25.426Z,4.30
2019-05-26T19:51:57.245Z,4.30
2019-05-26T19:54:28.729Z,4.30
2019-05-26T19:57:00.160Z,4.50
2019-05-26T19:59:31.665Z,4.47
2019-05-26T20:02:17.384Z,4.57
2019-05-26T20:04:36.593Z,4.50
2019-05-26T20:07:08.095Z,4.50
2019-05-26T20:09:39.798Z,4.53
2019-05-26T20:12:11.671Z,4.40
2019-05-26T20:14:43.139Z,4.27
2019-05-26T20:17:15.012Z,4.47
2019-05-26T20:19:46.519Z,4.30
2019-05-26T20:22:18.006Z,4.30
2019-05-26T20:24:49.333Z,4.30
2019-05-26T20:27:21.357Z,4.73
2019-05-26T20:29:53.080Z,4.37
2019-05-26T20:32:24.557Z,4.60
2019-05-26T20:34:56.031Z,4.43
2019-05-26T20:37:27.584Z,4.20
2019-05-26T20:39:59.213Z,4.40
2019-05-26T20:42:30.880Z,4.70
2019-05-26T20:45:02.605Z,4.30
2019-05-26T20:47:35.063Z,4.13
2019-05-26T20:50:07.048Z,4.30
2019-05-26T20:52:38.981Z,4.80
2019-05-26T20:55:11.042Z,4.73
2019-05-26T20:57:42.709Z,4.90
2019-05-26T21:00:15.910Z,4.67
2019-05-26T21:02:47.712Z,5.33
2019-05-26T21:05:20.360Z,6.33
2019-05-26T21:07:51.801Z,5.80
2019-05-26T21:10:23.522Z,5.90
2019-05-26T21:12:54.924Z,5.83
2019-05-26T21:15:26.459Z,5.60
2019-05-26T21:17:58.301Z,6.00
2019-05-26T21:20:29.759Z,5.93
2019-05-26T21:23:01.576Z,5.67
2019-05-26T21:25:33.160Z,5.40
2019-05-26T21:28:04.635Z,8.80
2019-05-26T21:30:36.414Z,5.20
2019-05-26T21:33:07.893Z,6.67
2019-05-26T21:35:39.298Z,7.80
2019-05-26T21:38:10.719Z,6.87
2019-05-26T21:40:42.228Z,4.93
2019-05-26T21:43:13.644Z,5.40
2019-05-26T21:45:44.972Z,7.27
2019-05-26T21:48:16.377Z,6.80
2019-05-26T21:50:48.051Z,7.23
2019-05-26T21:53:19.637Z,6.87
2019-05-26T21:55:50.978Z,7.83
2019-05-26T22:00:55.054Z,7.70
2019-05-26T22:03:26.672Z,6.00
2019-05-26T22:05:58.210Z,5.43
2019-05-26T22:08:29.636Z,21.63
2019-05-26T22:11:01.317Z,10.40
2019-05-26T22:13:33.967Z,7.97
2019-05-26T22:16:05.760Z,6.97
2019-05-26T22:18:37.907Z,6.03
2019-05-26T22:21:09.484Z,9.90
2019-05-26T22:23:40.901Z,5.53
2019-05-26T22:26:12.442Z,5.43
2019-05-26T22:28:43.946Z,5.07
2019-05-26T22:31:15.360Z,5.50
2019-05-26T22:33:47.585Z,5.43
2019-05-26T22:36:19.037Z,4.90
2019-05-26T22:38:50.791Z,5.13
2019-05-26T22:41:22.564Z,5.07
2019-05-26T22:43:54.029Z,5.07
2019-05-26T22:46:25.427Z,5.07
2019-05-26T22:48:57.200Z,4.90
2019-05-26T22:51:28.685Z,5.03
2019-05-26T22:54:00.485Z,4.63
2019-05-26T22:56:32.138Z,4.87
2019-05-26T22:59:03.877Z,5.00
2019-05-26T23:01:35.367Z,4.63
2019-05-26T23:04:07.197Z,4.70
2019-05-26T23:06:38.666Z,4.57
2019-05-26T23:09:10.439Z,4.43
2019-05-26T23:11:42.069Z,4.50
2019-05-26T23:14:13.678Z,4.53
2019-05-26T23:16:45.058Z,4.83
2019-05-26T23:19:19.838Z,4.83
2019-05-26T23:21:50.377Z,4.83
2019-05-26T23:24:21.944Z,4.60
2019-05-26T23:26:53.465Z,4.77
2019-05-26T23:29:24.855Z,4.97
2019-05-26T23:31:56.418Z,4.73
2019-05-26T23:34:28.168Z,4.57
2019-05-26T23:37:00.111Z,4.87
2019-05-26T23:39:31.898Z,4.77
2019-05-26T23:42:03.344Z,5.00
2019-05-26T23:44:34.861Z,4.77
2019-05-26T23:47:07.317Z,4.90
2019-05-26T23:49:38.840Z,4.90
2019-05-26T23:52:10.826Z,4.70
2019-05-26T23:54:42.395Z,4.77
2019-05-26T23:57:13.859Z,4.43
2019-05-26T23:59:45.211Z,4.33
